createdAt,value
2018-12-07T00:00:05.236Z,1006.94
2018-12-07T00:01:05.225Z,1006.95
2018-12-07T00:02:05.204Z,1006.97
2018-12-07T00:03:05.192Z,1006.95
2018-12-07T00:04:05.182Z,1006.92
2018-12-07T00:05:05.175Z,1006.86
2018-12-07T00:06:05.174Z,1006.80
2018-12-07T00:07:05.152Z,1006.80
2018-12-07T00:08:05.135Z,1006.80
2018-12-07T00:09:05.136Z,1006.77
2018-12-07T00:10:05.118Z,1006.75
2018-12-07T00:11:05.109Z,1006.73
2018-12-07T00:12:05.140Z,1006.74
2018-12-07T00:13:05.082Z,1006.68
2018-12-07T00:14:05.071Z,1006.74
2018-12-07T00:15:05.060Z,1006.66
2018-12-07T00:16:05.060Z,1006.69
2018-12-07T00:17:05.039Z,1006.66
2018-12-07T00:18:05.049Z,1006.65
2018-12-07T00:19:05.025Z,1006.63
2018-12-07T00:20:05.010Z,1006.62
2018-12-07T00:21:05.000Z,1006.67
2018-12-07T00:22:04.987Z,1006.66
2018-12-07T00:23:04.982Z,1006.66
2018-12-07T00:24:04.979Z,1006.64
2018-12-07T00:25:04.957Z,1006.68
2018-12-07T00:26:04.947Z,1006.64
2018-12-07T00:27:04.949Z,1006.61
2018-12-07T00:28:04.948Z,1006.62
2018-12-07T00:29:04.931Z,1006.62
2018-12-07T00:30:04.907Z,1006.60
2018-12-07T00:31:04.898Z,1006.58
2018-12-07T00:32:04.879Z,1006.60
2018-12-07T00:33:04.866Z,1006.54
2018-12-07T00:34:04.900Z,1006.48
2018-12-07T00:35:04.847Z,1006.44
2018-12-07T00:36:04.843Z,1006.45
2018-12-07T00:37:04.831Z,1006.40
2018-12-07T00:38:04.820Z,1006.39
2018-12-07T00:39:04.803Z,1006.36
2018-12-07T00:40:04.812Z,1006.30
2018-12-07T00:41:04.867Z,1006.36
2018-12-07T00:42:04.793Z,1006.27
2018-12-07T00:43:04.770Z,1006.28
2018-12-07T00:44:04.749Z,1006.24
2018-12-07T00:45:04.745Z,1006.30
2018-12-07T00:46:04.763Z,1006.28
2018-12-07T00:47:04.723Z,1006.33
2018-12-07T00:48:04.714Z,1006.33
2018-12-07T00:49:04.696Z,1006.40
2018-12-07T00:50:04.687Z,1006.37
2018-12-07T00:51:04.681Z,1006.41
2018-12-07T00:52:04.680Z,1006.48
2018-12-07T00:53:04.653Z,1006.41
2018-12-07T00:54:04.652Z,1006.39
2018-12-07T00:55:04.637Z,1006.38
2018-12-07T00:56:04.641Z,1006.37
2018-12-07T00:57:04.611Z,1006.35
2018-12-07T00:58:04.642Z,1006.32
2018-12-07T00:59:04.591Z,1006.29
2018-12-07T01:00:04.581Z,1006.31
2018-12-07T01:01:04.576Z,1006.28
2018-12-07T01:02:04.565Z,1006.27
2018-12-07T01:03:04.550Z,1006.24
2018-12-07T01:04:04.553Z,1006.26
2018-12-07T01:05:04.558Z,1006.20
2018-12-07T01:06:04.523Z,1006.19
2018-12-07T01:07:04.514Z,1006.16
2018-12-07T01:08:04.495Z,1006.15
2018-12-07T01:09:04.495Z,1006.11
2018-12-07T01:10:04.482Z,1006.03
2018-12-07T01:11:04.462Z,1006.08
2018-12-07T01:12:04.462Z,1006.06
2018-12-07T01:13:04.450Z,1006.04
2018-12-07T01:14:04.449Z,1006.05
2018-12-07T01:15:04.431Z,1006.04
2018-12-07T01:16:04.412Z,1006.04
2018-12-07T01:17:04.404Z,1006.02
2018-12-07T01:18:04.400Z,1005.97
2018-12-07T01:19:04.379Z,1006.03
2018-12-07T01:20:04.384Z,1006.02
2018-12-07T01:21:04.357Z,1006.03
2018-12-07T01:22:04.398Z,1006.04
2018-12-07T01:23:04.336Z,1006.01
2018-12-07T01:24:04.349Z,1005.99
2018-12-07T01:25:04.322Z,1006.01
2018-12-07T01:26:04.306Z,1005.96
2018-12-07T01:27:04.300Z,1005.97
2018-12-07T01:28:04.303Z,1005.98
2018-12-07T01:29:04.279Z,1005.96
2018-12-07T01:30:04.273Z,1005.94
2018-12-07T01:31:04.266Z,1006.02
2018-12-07T01:32:04.248Z,1005.99
2018-12-07T01:33:04.235Z,1005.96
2018-12-07T01:34:04.239Z,1005.96
2018-12-07T01:35:04.215Z,1006.03
2018-12-07T01:36:04.197Z,1005.99
2018-12-07T01:37:04.192Z,1006.01
2018-12-07T01:38:04.182Z,1006.02
2018-12-07T01:39:04.216Z,1005.93
2018-12-07T01:40:04.156Z,1005.93
2018-12-07T01:41:04.148Z,1005.93
2018-12-07T01:42:04.140Z,1005.98
2018-12-07T01:43:04.123Z,1005.96
2018-12-07T01:44:04.116Z,1005.88
2018-12-07T01:45:04.140Z,1005.92
2018-12-07T01:46:04.091Z,1005.88
2018-12-07T01:47:04.079Z,1005.91
2018-12-07T01:48:04.072Z,1005.91
2018-12-07T01:49:04.064Z,1005.94
2018-12-07T01:50:04.083Z,1005.93
2018-12-07T01:51:11.770Z,1005.90
2018-12-07T01:52:11.809Z,1005.90
2018-12-07T01:53:11.849Z,1005.88
2018-12-07T01:54:04.009Z,1005.84
2018-12-07T01:55:03.999Z,1005.83
2018-12-07T01:56:11.046Z,1005.79
2018-12-07T01:57:13.932Z,1005.76
2018-12-07T01:58:03.968Z,1005.87
2018-12-07T01:59:11.971Z,1005.82
2018-12-07T02:00:03.960Z,1005.84
2018-12-07T02:01:11.502Z,1005.76
2018-12-07T02:02:10.980Z,1005.77
2018-12-07T02:03:03.913Z,1005.74
2018-12-07T02:04:11.568Z,1005.71
2018-12-07T02:05:03.894Z,1005.75
2018-12-07T02:06:03.877Z,1005.79
2018-12-07T02:07:03.870Z,1005.74
2018-12-07T02:08:03.897Z,1005.65
2018-12-07T02:09:03.844Z,1005.66
2018-12-07T02:10:03.838Z,1005.61
2018-12-07T02:11:03.831Z,1005.53
2018-12-07T02:12:03.814Z,1005.59
2018-12-07T02:13:03.811Z,1005.58
2018-12-07T02:14:03.820Z,1005.59
2018-12-07T02:15:03.782Z,1005.56
2018-12-07T02:16:03.775Z,1005.64
2018-12-07T02:17:03.764Z,1005.49
2018-12-07T02:18:03.749Z,1005.50
2018-12-07T02:19:03.759Z,1005.48
2018-12-07T02:20:03.733Z,1005.41
2018-12-07T02:21:03.735Z,1005.40
2018-12-07T02:22:03.711Z,1005.28
2018-12-07T02:23:03.698Z,1005.37
2018-12-07T02:24:03.688Z,1005.34
2018-12-07T02:25:03.697Z,1005.31
2018-12-07T02:26:03.664Z,1005.27
2018-12-07T02:27:03.654Z,1005.30
2018-12-07T02:28:03.652Z,1005.21
2018-12-07T02:29:03.641Z,1005.24
2018-12-07T02:30:03.664Z,1005.23
2018-12-07T02:31:03.612Z,1005.23
2018-12-07T02:32:03.601Z,1005.21
2018-12-07T02:33:03.596Z,1005.19
2018-12-07T02:34:03.587Z,1005.23
2018-12-07T02:35:03.586Z,1005.23
2018-12-07T02:36:03.571Z,1005.24
2018-12-07T02:37:03.558Z,1005.23
2018-12-07T02:38:03.539Z,1005.22
2018-12-07T02:39:03.527Z,1005.19
2018-12-07T02:40:03.521Z,1005.20
2018-12-07T02:41:03.549Z,1005.21
2018-12-07T02:42:03.494Z,1005.13
2018-12-07T02:43:03.491Z,1005.15
2018-12-07T02:44:03.478Z,1005.17
2018-12-07T02:45:03.467Z,1005.12
2018-12-07T02:46:03.455Z,1005.17
2018-12-07T02:47:03.459Z,1005.11
2018-12-07T02:48:03.434Z,1005.16
2018-12-07T02:49:03.426Z,1005.09
2018-12-07T02:50:03.407Z,1005.14
2018-12-07T02:51:03.401Z,1005.12
2018-12-07T02:52:03.402Z,1005.11
2018-12-07T02:53:03.387Z,1005.11
2018-12-07T02:54:03.366Z,1005.09
2018-12-07T02:55:03.359Z,1005.03
2018-12-07T02:56:03.360Z,1005.02
2018-12-07T02:57:03.357Z,1005.03
2018-12-07T02:58:03.331Z,1004.92
2018-12-07T02:59:03.316Z,1004.97
2018-12-07T03:00:03.320Z,1004.96
2018-12-07T03:01:03.294Z,1004.95
2018-12-07T03:02:03.292Z,1004.92
2018-12-07T03:03:03.314Z,1004.92
2018-12-07T03:04:03.262Z,1004.93
2018-12-07T03:05:03.250Z,1004.90
2018-12-07T03:06:03.235Z,1004.86
2018-12-07T03:07:03.229Z,1004.86
2018-12-07T03:08:03.231Z,1004.87
2018-12-07T03:09:03.250Z,1004.81
2018-12-07T03:10:03.193Z,1004.81
2018-12-07T03:11:03.189Z,1004.75
2018-12-07T03:12:03.176Z,1004.73
2018-12-07T03:13:03.165Z,1004.71
2018-12-07T03:14:03.155Z,1004.75
2018-12-07T03:15:03.155Z,1004.70
2018-12-07T03:16:03.145Z,1004.72
2018-12-07T03:17:03.140Z,1004.73
2018-12-07T03:18:03.109Z,1004.68
2018-12-07T03:19:03.103Z,1004.66
2018-12-07T03:20:03.164Z,1004.66
2018-12-07T03:21:03.077Z,1004.70
2018-12-07T03:22:03.073Z,1004.66
2018-12-07T03:23:03.053Z,1004.63
2018-12-07T03:24:03.044Z,1004.64
2018-12-07T03:25:03.033Z,1004.62
2018-12-07T03:26:03.037Z,1004.58
2018-12-07T03:27:03.018Z,1004.63
2018-12-07T03:28:03.006Z,1004.59
2018-12-07T03:29:02.995Z,1004.60
2018-12-07T03:30:02.983Z,1004.59
2018-12-07T03:31:02.986Z,1004.56
2018-12-07T03:32:02.966Z,1004.52
2018-12-07T03:33:02.956Z,1004.54
2018-12-07T03:34:02.942Z,1004.56
2018-12-07T03:35:02.932Z,1004.50
2018-12-07T03:36:02.938Z,1004.52
2018-12-07T03:37:02.922Z,1004.49
2018-12-07T03:38:02.895Z,1004.51
2018-12-07T03:39:02.890Z,1004.44
2018-12-07T03:40:02.878Z,1004.45
2018-12-07T03:41:02.868Z,1004.45
2018-12-07T03:42:02.889Z,1004.46
2018-12-07T03:43:02.850Z,1004.47
2018-12-07T03:44:02.835Z,1004.42
2018-12-07T03:45:02.823Z,1004.42
2018-12-07T03:46:02.816Z,1004.45
2018-12-07T03:47:02.801Z,1004.38
2018-12-07T03:48:02.837Z,1004.43
2018-12-07T03:49:02.779Z,1004.43
2018-12-07T03:50:02.768Z,1004.38
2018-12-07T03:51:02.790Z,1004.37
2018-12-07T03:52:02.751Z,1004.34
2018-12-07T03:53:02.748Z,1004.37
2018-12-07T03:54:02.740Z,1004.39
2018-12-07T03:55:02.722Z,1004.35
2018-12-07T03:56:02.704Z,1004.29
2018-12-07T03:57:02.707Z,1004.30
2018-12-07T03:58:02.689Z,1004.28
2018-12-07T03:59:02.713Z,1004.39
2018-12-07T04:00:02.667Z,1004.38
2018-12-07T04:01:02.656Z,1004.35
2018-12-07T04:02:02.646Z,1004.38
2018-12-07T04:03:02.639Z,1004.24
2018-12-07T04:04:02.637Z,1004.26
2018-12-07T04:05:02.622Z,1004.30
2018-12-07T04:06:02.603Z,1004.33
2018-12-07T04:07:02.594Z,1004.30
2018-12-07T04:08:02.578Z,1004.27
2018-12-07T04:09:02.576Z,1004.19
2018-12-07T04:10:02.574Z,1004.22
2018-12-07T04:11:02.553Z,1004.20
2018-12-07T04:12:02.537Z,1004.20
2018-12-07T04:13:02.532Z,1004.18
2018-12-07T04:14:02.521Z,1004.16
2018-12-07T04:15:02.530Z,1004.17
2018-12-07T04:16:02.498Z,1004.18
2018-12-07T04:17:02.494Z,1004.14
2018-12-07T04:18:02.472Z,1004.14
2018-12-07T04:19:02.466Z,1004.03
2018-12-07T04:20:02.459Z,1004.10
2018-12-07T04:21:02.477Z,1004.07
2018-12-07T04:22:02.435Z,1004.08
2018-12-07T04:23:02.427Z,1004.06
2018-12-07T04:24:02.406Z,1004.08
2018-12-07T04:25:02.399Z,1004.07
2018-12-07T04:26:02.388Z,1004.08
2018-12-07T04:27:02.401Z,1004.06
2018-12-07T04:28:02.372Z,1004.07
2018-12-07T04:29:02.354Z,1004.04
2018-12-07T04:30:02.354Z,1004.05
2018-12-07T04:31:02.342Z,1004.05
2018-12-07T04:32:02.322Z,1004.05
2018-12-07T04:33:02.316Z,1004.04
2018-12-07T04:34:02.299Z,1004.13
2018-12-07T04:35:02.303Z,1004.06
2018-12-07T04:36:07.343Z,1004.02
2018-12-07T04:37:03.284Z,1004.03
2018-12-07T04:38:02.264Z,1004.05
2018-12-07T04:39:02.329Z,1004.02
2018-12-07T04:40:02.247Z,1004.02
2018-12-07T04:41:02.231Z,1004.01
2018-12-07T04:42:02.216Z,1004.00
2018-12-07T04:43:02.218Z,1004.05
2018-12-07T04:44:02.195Z,1004.04
2018-12-07T04:45:02.184Z,1004.07
2018-12-07T04:46:02.187Z,1004.07
2018-12-07T04:47:02.164Z,1004.06
2018-12-07T04:48:02.182Z,1004.05
2018-12-07T04:49:02.149Z,1004.08
2018-12-07T04:50:02.139Z,1004.02
2018-12-07T04:51:02.128Z,1003.99
2018-12-07T04:52:02.115Z,1004.00
2018-12-07T04:53:02.133Z,1003.97
2018-12-07T04:54:02.096Z,1004.00
2018-12-07T04:55:02.078Z,1003.98
2018-12-07T04:56:02.072Z,1003.97
2018-12-07T04:57:02.086Z,1003.96
2018-12-07T04:58:02.085Z,1003.94
2018-12-07T04:59:02.044Z,1003.93
2018-12-07T05:00:02.045Z,1003.91
2018-12-07T05:01:02.018Z,1003.88
2018-12-07T05:02:02.002Z,1003.91
2018-12-07T05:03:01.998Z,1003.87
2018-12-07T05:04:01.986Z,1003.84
2018-12-07T05:05:02.008Z,1003.88
2018-12-07T05:06:01.974Z,1003.80
2018-12-07T05:07:01.949Z,1003.78
2018-12-07T05:08:01.939Z,1003.79
2018-12-07T05:09:01.936Z,1003.76
2018-12-07T05:10:01.925Z,1003.73
2018-12-07T05:11:01.955Z,1003.72
2018-12-07T05:12:01.893Z,1003.74
2018-12-07T05:13:01.890Z,1003.72
2018-12-07T05:14:01.881Z,1003.75
2018-12-07T05:15:01.863Z,1003.74
2018-12-07T05:16:01.857Z,1003.75
2018-12-07T05:17:01.859Z,1003.73
2018-12-07T05:18:01.833Z,1003.76
2018-12-07T05:19:01.824Z,1003.73
2018-12-07T05:20:01.812Z,1003.72
2018-12-07T05:21:01.840Z,1003.72
2018-12-07T05:22:01.793Z,1003.75
2018-12-07T05:23:01.776Z,1003.78
2018-12-07T05:24:01.765Z,1003.75
2018-12-07T05:25:01.761Z,1003.81
2018-12-07T05:26:01.750Z,1003.81
2018-12-07T05:27:01.778Z,1003.74
2018-12-07T05:28:01.731Z,1003.79
2018-12-07T05:29:01.727Z,1003.75
2018-12-07T05:30:01.708Z,1003.79
2018-12-07T05:31:01.748Z,1003.77
2018-12-07T05:32:01.685Z,1003.75
2018-12-07T05:33:01.699Z,1003.78
2018-12-07T05:34:01.663Z,1003.72
2018-12-07T05:35:01.647Z,1003.76
2018-12-07T05:36:01.641Z,1003.76
2018-12-07T05:37:01.631Z,1003.79
2018-12-07T05:38:01.627Z,1003.72
2018-12-07T05:39:01.617Z,1003.69
2018-12-07T05:40:01.594Z,1003.76
2018-12-07T05:41:01.591Z,1003.71
2018-12-07T05:42:01.574Z,1003.70
2018-12-07T05:43:01.598Z,1003.71
2018-12-07T05:44:01.556Z,1003.77
2018-12-07T05:45:01.547Z,1003.72
2018-12-07T05:46:01.533Z,1003.76
2018-12-07T05:47:01.526Z,1003.74
2018-12-07T05:48:01.516Z,1003.70
2018-12-07T05:49:01.513Z,1003.74
2018-12-07T05:50:01.487Z,1003.77
2018-12-07T05:51:01.478Z,1003.72
2018-12-07T05:52:01.471Z,1003.77
2018-12-07T05:53:01.455Z,1003.78
2018-12-07T05:54:01.500Z,1003.74
2018-12-07T05:55:01.439Z,1003.80
2018-12-07T05:56:01.427Z,1003.73
2018-12-07T05:57:01.412Z,1003.78
2018-12-07T05:58:01.400Z,1003.76
2018-12-07T05:59:01.390Z,1003.76
2018-12-07T06:00:01.407Z,1003.70
2018-12-07T06:01:01.375Z,1003.73
2018-12-07T06:02:01.362Z,1003.72
2018-12-07T06:03:01.353Z,1003.74
2018-12-07T06:04:01.348Z,1003.73
2018-12-07T06:05:01.352Z,1003.69
2018-12-07T06:06:01.322Z,1003.69
2018-12-07T06:07:01.309Z,1003.71
2018-12-07T06:08:01.293Z,1003.64
2018-12-07T06:09:01.288Z,1003.67
2018-12-07T06:10:01.274Z,1003.70
2018-12-07T06:11:01.273Z,1003.68
2018-12-07T06:12:01.255Z,1003.63
2018-12-07T06:13:01.248Z,1003.65
2018-12-07T06:14:01.235Z,1003.65
2018-12-07T06:15:01.223Z,1003.64
2018-12-07T06:16:01.253Z,1003.59
2018-12-07T06:17:01.197Z,1003.62
2018-12-07T06:18:01.185Z,1003.65
2018-12-07T06:19:01.177Z,1003.65
2018-12-07T06:20:01.169Z,1003.56
2018-12-07T06:21:01.159Z,1003.67
2018-12-07T06:22:01.187Z,1003.62
2018-12-07T06:23:01.142Z,1003.66
2018-12-07T06:24:01.126Z,1003.65
2018-12-07T06:25:01.108Z,1003.62
2018-12-07T06:26:01.101Z,1003.62
2018-12-07T06:27:01.086Z,1003.62
2018-12-07T06:28:01.113Z,1003.59
2018-12-07T06:29:01.077Z,1003.60
2018-12-07T06:30:01.056Z,1003.63
2018-12-07T06:31:01.048Z,1003.63
2018-12-07T06:32:01.042Z,1003.57
2018-12-07T06:33:01.027Z,1003.58
2018-12-07T06:34:01.603Z,1003.56
2018-12-07T06:35:01.014Z,1003.47
2018-12-07T06:36:00.990Z,1003.47
2018-12-07T06:37:00.984Z,1003.47
2018-12-07T06:38:00.973Z,1003.49
2018-12-07T06:39:00.988Z,1003.38
2018-12-07T06:40:00.954Z,1003.46
2018-12-07T06:41:00.948Z,1003.51
2018-12-07T06:42:00.926Z,1003.50
2018-12-07T06:43:00.919Z,1003.50
2018-12-07T06:44:00.903Z,1003.55
2018-12-07T06:45:00.904Z,1003.55
2018-12-07T06:46:00.914Z,1003.53
2018-12-07T06:47:00.870Z,1003.51
2018-12-07T06:48:00.872Z,1003.51
2018-12-07T06:49:00.855Z,1003.48
2018-12-07T06:50:00.838Z,1003.47
2018-12-07T06:51:00.828Z,1003.52
2018-12-07T06:52:00.831Z,1003.49
2018-12-07T06:53:00.811Z,1003.48
2018-12-07T06:54:00.797Z,1003.49
2018-12-07T06:55:00.784Z,1003.43
2018-12-07T06:56:00.775Z,1003.41
2018-12-07T06:57:00.796Z,1003.43
2018-12-07T06:58:00.752Z,1003.39
2018-12-07T06:59:00.743Z,1003.38
2018-12-07T07:00:00.736Z,1003.36
2018-12-07T07:01:00.724Z,1003.38
2018-12-07T07:02:00.714Z,1003.35
2018-12-07T07:03:00.718Z,1003.31
2018-12-07T07:04:00.695Z,1003.33
2018-12-07T07:05:00.682Z,1003.32
2018-12-07T07:06:00.668Z,1003.30
2018-12-07T07:07:00.691Z,1003.28
2018-12-07T07:08:00.688Z,1003.35
2018-12-07T07:09:00.633Z,1003.32
2018-12-07T07:10:00.628Z,1003.31
2018-12-07T07:11:00.619Z,1003.31
2018-12-07T07:12:00.606Z,1003.32
2018-12-07T07:13:00.591Z,1003.31
2018-12-07T07:14:00.590Z,1003.33
2018-12-07T07:15:00.573Z,1003.32
2018-12-07T07:16:00.557Z,1003.32
2018-12-07T07:17:00.546Z,1003.27
2018-12-07T07:18:00.536Z,1003.32
2018-12-07T07:19:00.565Z,1003.35
2018-12-07T07:20:00.522Z,1003.29
2018-12-07T07:21:00.508Z,1003.29
2018-12-07T07:22:00.493Z,1003.35
2018-12-07T07:23:00.485Z,1003.37
2018-12-07T07:24:00.477Z,1003.38
2018-12-07T07:25:00.473Z,1003.35
2018-12-07T07:26:00.451Z,1003.40
2018-12-07T07:27:00.443Z,1003.34
2018-12-07T07:28:00.429Z,1003.36
2018-12-07T07:29:00.418Z,1003.38
2018-12-07T07:30:00.418Z,1003.36
2018-12-07T07:31:00.396Z,1003.38
2018-12-07T07:32:00.385Z,1003.41
2018-12-07T07:33:00.375Z,1003.41
2018-12-07T07:34:00.378Z,1003.41
2018-12-07T07:35:00.396Z,1003.45
2018-12-07T07:36:00.346Z,1003.41
2018-12-07T07:37:00.330Z,1003.38
2018-12-07T07:38:00.327Z,1003.41
2018-12-07T07:39:00.317Z,1003.41
2018-12-07T07:40:00.310Z,1003.35
2018-12-07T07:41:00.308Z,1003.38
2018-12-07T07:42:00.285Z,1003.35
2018-12-07T07:43:00.272Z,1003.27
2018-12-07T07:44:00.260Z,1003.30
2018-12-07T07:45:00.248Z,1003.25
2018-12-07T07:46:00.288Z,1003.24
2018-12-07T07:47:00.223Z,1003.25
2018-12-07T07:48:00.216Z,1003.24
2018-12-07T07:49:00.206Z,1003.27
2018-12-07T07:50:00.191Z,1003.22
2018-12-07T07:51:00.188Z,1003.23
2018-12-07T07:52:00.184Z,1003.21
2018-12-07T07:53:00.158Z,1003.18
2018-12-07T07:54:00.147Z,1003.14
2018-12-07T07:55:00.141Z,1003.14
2018-12-07T07:56:00.126Z,1003.11
2018-12-07T07:57:00.128Z,1003.10
2018-12-07T07:58:00.104Z,1003.11
2018-12-07T07:59:00.113Z,1003.07
2018-12-07T08:00:00.087Z,1003.09
2018-12-07T08:01:00.075Z,1003.05
2018-12-07T08:02:00.070Z,1003.02
2018-12-07T08:03:00.158Z,1003.03
2018-12-07T08:04:00.046Z,1003.03
2018-12-07T08:05:00.040Z,1003.02
2018-12-07T08:06:00.018Z,1003.04
2018-12-07T08:07:00.011Z,1003.02
2018-12-07T08:08:00.001Z,1003.01
2018-12-07T08:09:00.000Z,1002.98
2018-12-07T08:09:59.978Z,1003.00
2018-12-07T08:10:59.986Z,1002.97
2018-12-07T08:11:59.955Z,1002.93
2018-12-07T08:12:59.971Z,1002.92
2018-12-07T08:13:59.942Z,1002.85
2018-12-07T08:14:59.920Z,1002.87
2018-12-07T08:15:59.908Z,1002.85
2018-12-07T08:16:59.901Z,1002.82
2018-12-07T08:17:59.887Z,1002.84
2018-12-07T08:18:59.889Z,1002.81
2018-12-07T08:19:59.883Z,1002.81
2018-12-07T08:20:59.854Z,1002.71
2018-12-07T08:21:59.845Z,1002.71
2018-12-07T08:22:59.832Z,1002.72
2018-12-07T08:23:59.841Z,1002.71
2018-12-07T08:24:59.822Z,1002.70
2018-12-07T08:25:59.806Z,1002.69
2018-12-07T08:26:59.789Z,1002.71
2018-12-07T08:27:59.783Z,1002.74
2018-12-07T08:28:59.783Z,1002.72
2018-12-07T08:29:59.767Z,1002.67
2018-12-07T08:30:59.752Z,1002.71
2018-12-07T08:31:59.827Z,1002.73
2018-12-07T08:32:59.724Z,1002.73
2018-12-07T08:34:00.312Z,1002.71
2018-12-07T08:34:59.709Z,1002.74
2018-12-07T08:35:59.696Z,1002.72
2018-12-07T08:36:59.683Z,1002.70
2018-12-07T08:37:59.675Z,1002.68
2018-12-07T08:38:59.670Z,1002.64
2018-12-07T08:39:59.652Z,1002.67
2018-12-07T08:40:59.637Z,1002.69
2018-12-07T08:42:06.486Z,1002.69
2018-12-07T08:43:00.621Z,1002.66
2018-12-07T08:44:06.699Z,1002.72
2018-12-07T08:44:59.604Z,1002.69
2018-12-07T08:46:07.183Z,1002.70
2018-12-07T08:46:59.578Z,1002.73
2018-12-07T08:47:59.567Z,1002.70
2018-12-07T08:48:59.552Z,1002.73
2018-12-07T08:49:59.581Z,1002.66
2018-12-07T08:50:59.535Z,1002.65
2018-12-07T08:51:59.528Z,1002.65
2018-12-07T08:52:59.513Z,1002.64
2018-12-07T08:53:59.502Z,1002.65
2018-12-07T08:54:59.491Z,1002.63
2018-12-07T08:55:59.486Z,1002.62
2018-12-07T08:56:59.470Z,1002.64
2018-12-07T08:57:59.462Z,1002.63
2018-12-07T08:58:59.449Z,1002.60
2018-12-07T08:59:59.434Z,1002.60
2018-12-07T09:00:59.475Z,1002.59
2018-12-07T09:01:59.411Z,1002.55
2018-12-07T09:02:59.405Z,1002.56
2018-12-07T09:03:59.392Z,1002.58
2018-12-07T09:04:59.384Z,1002.56
2018-12-07T09:05:59.367Z,1002.53
2018-12-07T09:06:59.372Z,1002.55
2018-12-07T09:07:59.351Z,1002.56
2018-12-07T09:08:59.341Z,1002.51
2018-12-07T09:09:59.333Z,1002.56
2018-12-07T09:10:59.320Z,1002.51
2018-12-07T09:11:59.321Z,1002.49
2018-12-07T09:12:59.299Z,1002.46
2018-12-07T09:13:59.299Z,1002.46
2018-12-07T09:14:59.280Z,1002.43
2018-12-07T09:15:59.268Z,1002.45
2018-12-07T09:16:59.251Z,1002.47
2018-12-07T09:17:59.240Z,1002.44
2018-12-07T09:18:59.244Z,1002.39
2018-12-07T09:19:59.218Z,1002.42
2018-12-07T09:20:59.236Z,1002.33
2018-12-07T09:21:59.204Z,1002.34
2018-12-07T09:22:59.199Z,1002.39
2018-12-07T09:23:59.176Z,1002.35
2018-12-07T09:24:59.375Z,1002.33
2018-12-07T09:25:59.163Z,1002.33
2018-12-07T09:26:59.142Z,1002.25
2018-12-07T09:27:59.136Z,1002.26
2018-12-07T09:28:59.127Z,1002.23
2018-12-07T09:29:59.111Z,1002.21
2018-12-07T09:30:59.118Z,1002.25
2018-12-07T09:31:59.089Z,1002.23
2018-12-07T09:32:59.084Z,1002.22
2018-12-07T09:33:59.086Z,1002.25
2018-12-07T09:34:59.063Z,1002.27
2018-12-07T09:35:59.052Z,1002.19
2018-12-07T09:36:59.041Z,1002.22
2018-12-07T09:37:59.033Z,1002.20
2018-12-07T09:38:59.057Z,1002.17
2018-12-07T09:39:59.004Z,1002.19
2018-12-07T09:40:58.993Z,1002.16
2018-12-07T09:41:58.981Z,1002.13
2018-12-07T09:42:58.973Z,1002.15
2018-12-07T09:43:58.962Z,1002.16
2018-12-07T09:44:58.967Z,1002.06
2018-12-07T09:45:58.941Z,1002.10
2018-12-07T09:46:58.937Z,1002.09
2018-12-07T09:47:58.923Z,1002.06
2018-12-07T09:48:58.912Z,1002.01
2018-12-07T09:49:58.908Z,1002.05
2018-12-07T09:50:58.891Z,1002.02
2018-12-07T09:51:58.876Z,1002.00
2018-12-07T09:52:58.869Z,1001.97
2018-12-07T09:53:58.855Z,1001.95
2018-12-07T09:54:58.855Z,1001.94
2018-12-07T09:55:58.838Z,1001.90
2018-12-07T09:56:58.829Z,1001.92
2018-12-07T09:57:58.812Z,1001.90
2018-12-07T09:58:58.805Z,1001.88
2018-12-07T09:59:58.809Z,1001.90
2018-12-07T10:00:58.786Z,1001.86
2018-12-07T10:01:58.768Z,1001.83
2018-12-07T10:02:58.767Z,1001.81
2018-12-07T10:03:58.755Z,1001.83
2018-12-07T10:04:58.762Z,1001.77
2018-12-07T10:05:58.725Z,1001.82
2018-12-07T10:06:58.715Z,1001.75
2018-12-07T10:07:58.723Z,1001.74
2018-12-07T10:08:58.699Z,1001.72
2018-12-07T10:09:58.692Z,1001.73
2018-12-07T10:10:58.699Z,1001.73
2018-12-07T10:11:58.661Z,1001.71
2018-12-07T10:12:58.657Z,1001.63
2018-12-07T10:13:58.645Z,1001.65
2018-12-07T10:14:58.628Z,1001.63
2018-12-07T10:15:58.635Z,1001.58
2018-12-07T10:16:58.622Z,1001.55
2018-12-07T10:17:58.620Z,1001.50
2018-12-07T10:18:58.595Z,1001.50
2018-12-07T10:19:58.576Z,1001.47
2018-12-07T10:20:58.626Z,1001.46
2018-12-07T10:21:58.565Z,1001.41
2018-12-07T10:22:58.544Z,1001.35
2018-12-07T10:23:58.534Z,1001.22
2018-12-07T10:24:58.521Z,1001.28
2018-12-07T10:25:58.510Z,1001.25
2018-12-07T10:26:58.516Z,1001.19
2018-12-07T10:27:58.500Z,1001.22
2018-12-07T10:28:58.487Z,1001.19
2018-12-07T10:29:58.469Z,1001.21
2018-12-07T10:30:58.458Z,1001.15
2018-12-07T10:31:58.470Z,1001.17
2018-12-07T10:32:58.437Z,1001.13
2018-12-07T10:33:58.430Z,1001.12
2018-12-07T10:34:58.420Z,1001.08
2018-12-07T10:35:58.403Z,1001.02
2018-12-07T10:36:58.399Z,1001.04
2018-12-07T10:37:58.394Z,1001.03
2018-12-07T10:38:58.404Z,1001.02
2018-12-07T10:39:58.361Z,1001.00
2018-12-07T10:40:58.365Z,1001.04
2018-12-07T10:41:59.876Z,1001.03
2018-12-07T10:42:58.333Z,1001.04
2018-12-07T10:43:58.318Z,1001.02
2018-12-07T10:44:58.308Z,1001.01
2018-12-07T10:45:58.313Z,1000.91
2018-12-07T10:46:58.296Z,1000.90
2018-12-07T10:47:58.276Z,1000.89
2018-12-07T10:48:58.277Z,1000.91
2018-12-07T10:49:58.260Z,1000.91
2018-12-07T10:50:58.249Z,1000.83
2018-12-07T10:51:58.242Z,1000.77
2018-12-07T10:52:58.222Z,1000.80
2018-12-07T10:53:58.265Z,1000.79
2018-12-07T10:54:58.206Z,1000.74
2018-12-07T10:55:58.201Z,1000.81
2018-12-07T10:56:58.181Z,1000.74
2018-12-07T10:57:58.174Z,1000.75
2018-12-07T10:58:58.163Z,1000.72
2018-12-07T10:59:58.194Z,1000.75
2018-12-07T11:00:58.144Z,1000.66
2018-12-07T11:01:58.135Z,1000.61
2018-12-07T11:02:58.117Z,1000.61
2018-12-07T11:03:58.107Z,1000.60
2018-12-07T11:04:58.103Z,1000.55
2018-12-07T11:05:58.097Z,1000.62
2018-12-07T11:06:58.079Z,1000.55
2018-12-07T11:07:58.062Z,1000.53
2018-12-07T11:08:58.053Z,1000.46
2018-12-07T11:09:58.054Z,1000.43
2018-12-07T11:10:58.039Z,1000.48
2018-12-07T11:11:58.025Z,1000.42
2018-12-07T11:12:58.008Z,1000.39
2018-12-07T11:13:57.999Z,1000.35
2018-12-07T11:14:58.005Z,1000.37
2018-12-07T11:15:57.989Z,1000.34
2018-12-07T11:16:57.966Z,1000.35
2018-12-07T11:17:57.972Z,1000.34
2018-12-07T11:18:57.950Z,1000.31
2018-12-07T11:19:57.933Z,1000.25
2018-12-07T11:20:57.966Z,1000.25
2018-12-07T11:21:57.921Z,1000.27
2018-12-07T11:22:57.909Z,1000.24
2018-12-07T11:23:57.891Z,1000.23
2018-12-07T11:24:57.885Z,1000.22
2018-12-07T11:25:57.873Z,1000.17
2018-12-07T11:26:57.878Z,1000.23
2018-12-07T11:27:57.857Z,1000.20
2018-12-07T11:28:57.840Z,1000.17
2018-12-07T11:29:57.832Z,1000.15
2018-12-07T11:30:57.819Z,1000.14
2018-12-07T11:31:57.817Z,1000.10
2018-12-07T11:32:57.801Z,1000.11
2018-12-07T11:33:57.792Z,1000.08
2018-12-07T11:34:57.773Z,1000.09
2018-12-07T11:35:57.766Z,1000.04
2018-12-07T11:36:57.769Z,1000.01
2018-12-07T11:37:57.744Z,1000.01
2018-12-07T11:38:57.739Z,1000.04
2018-12-07T11:39:57.730Z,999.98
2018-12-07T11:40:57.715Z,999.97
2018-12-07T11:41:57.722Z,1000.00
2018-12-07T11:42:57.694Z,999.97
2018-12-07T11:43:57.682Z,999.96
2018-12-07T11:44:57.678Z,999.94
2018-12-07T11:45:57.662Z,999.96
2018-12-07T11:46:57.649Z,999.96
2018-12-07T11:47:57.650Z,999.91
2018-12-07T11:48:57.631Z,999.89
2018-12-07T11:49:57.615Z,999.87
2018-12-07T11:50:57.606Z,999.88
2018-12-07T11:51:57.630Z,999.84
2018-12-07T11:52:57.589Z,999.82
2018-12-07T11:53:57.572Z,999.80
2018-12-07T11:54:57.568Z,999.76
2018-12-07T11:55:57.550Z,999.81
2018-12-07T11:56:57.545Z,999.80
2018-12-07T11:57:57.547Z,999.79
2018-12-07T11:58:57.518Z,999.81
2018-12-07T11:59:57.512Z,999.72
2018-12-07T12:00:57.504Z,999.76
2018-12-07T12:01:57.494Z,999.73
2018-12-07T12:02:57.489Z,999.67
2018-12-07T12:03:57.475Z,999.62
2018-12-07T12:04:57.474Z,999.63
2018-12-07T12:05:57.456Z,999.62